Amiret, Minnesota
Current Conditions -  °F | °C
As of 12:52 PM on Thursday 23 Oct 2014 (Local Time) from KTKC Reporting Station
Clear Clear  
Wind Chill: 69°   Ceiling: Unl
Heat Index: 69°   Visibility: 10mi
Dew Point: 42°   Wind: 8mph
Humidity: 39%   Direction: 250°WSW
Pressure: 30"   Gusts: NA
Location:  44.2253°N, 95.6512°W
Report Text: KTKC 231752Z AUTO 25007KT 10SM CLR 20/06 A3000 RMK AO2 T02030058
Loading
Personal Weather Stations






























Interactive Weather Map New forecast layout! Learn more

10-Day Weather Forecast

Advertisements
Track Severe Weather on mobile